Time;durP1;ratioP1;P1;durP2;ratioP2;P2;SDS_P1;SDS_P2;PMS_P1;PMS_P2;Temp;Humidity;BMP_temperature;BMP_pressure;BME280_temperature;BME280_humidity;BME280_pressure;Samples;Min_cycle;Max_cycle;Signal;HPM_P1;HPM_P2
2022/12/31 00:01:12;;;;;;;4.88;2.28;;;12.50;99.90;;;;;;5031737;28;20514;-61
2022/12/31 00:03:39;;;;;;;8.32;2.10;;;12.50;99.90;;;;;;5030981;28;20120;-60
2022/12/31 00:06:21;;;;;;;2.38;1.48;;;12.50;99.90;;;;;;5031369;28;20033;-61
2022/12/31 00:08:48;;;;;;;2.90;1.80;;;12.50;99.90;;;;;;5031463;28;20087;-60
2022/12/31 00:11:14;;;;;;;4.97;1.85;;;12.50;99.90;;;;;;5031370;28;20537;-61
2022/12/31 00:13:40;;;;;;;3.33;1.92;;;12.40;99.90;;;;;;5030858;28;20041;-61
2022/12/31 00:16:10;;;;;;;4.88;2.33;;;12.40;99.90;;;;;;5031504;28;20088;-62
2022/12/31 00:18:36;;;;;;;8.23;2.42;;;12.40;99.90;;;;;;5030531;28;20050;-61
2022/12/31 00:21:06;;;;;;;6.50;2.05;;;12.40;99.90;;;;;;5041714;28;20047;-61
2022/12/31 00:23:32;;;;;;;8.13;2.92;;;12.30;99.90;;;;;;5050657;28;20052;-61
2022/12/31 00:26:05;;;;;;;5.85;3.45;;;12.30;99.90;;;;;;5051301;28;20041;-61
2022/12/31 00:28:31;;;;;;;5.95;3.65;;;12.30;99.90;;;;;;5049843;28;20044;-61
2022/12/31 00:31:07;;;;;;;5.95;3.85;;;12.20;99.90;;;;;;5050155;28;20395;-61
2022/12/31 00:33:33;;;;;;;6.10;4.18;;;12.20;99.90;;;;;;5049806;28;20033;-61
2022/12/31 00:36:18;;;;;;;6.40;4.17;;;12.20;99.90;;;;;;5050847;28;20098;-61
2022/12/31 00:38:46;;;;;;;5.13;3.90;;;12.20;99.90;;;;;;5032864;28;20284;-61
2022/12/31 00:41:12;;;;;;;7.57;4.47;;;12.20;99.90;;;;;;5031211;28;20117;-60
2022/12/31 00:43:38;;;;;;;8.38;4.65;;;12.20;99.90;;;;;;5030081;28;20042;-61
2022/12/31 00:46:04;;;;;;;7.60;5.30;;;12.20;99.90;;;;;;5030172;28;20087;-60
2022/12/31 00:48:31;;;;;;;12.00;5.78;;;12.10;99.90;;;;;;5030219;28;20136;-60
2022/12/31 00:50:57;;;;;;;11.95;5.28;;;12.10;99.90;;;;;;5048621;28;20529;-61
2022/12/31 00:53:23;;;;;;;8.30;5.13;;;12.10;99.90;;;;;;5050078;28;20324;-61
2022/12/31 00:55:49;;;;;;;7.05;5.13;;;12.10;99.90;;;;;;5050596;28;20094;-61
2022/12/31 00:58:14;;;;;;;8.43;5.47;;;12.10;99.90;;;;;;5050508;28;20487;-61
2022/12/31 01:00:40;;;;;;;9.73;5.70;;;12.00;99.90;;;;;;5050063;28;20055;-61
2022/12/31 01:03:07;;;;;;;15.82;6.82;;;12.00;99.90;;;;;;5049752;28;20068;-59
2022/12/31 01:05:34;;;;;;;6.80;5.18;;;12.00;99.90;;;;;;5050420;28;20033;-61
2022/12/31 01:07:59;;;;;;;10.07;6.25;;;12.00;99.90;;;;;;5050207;28;20037;-60
2022/12/31 01:13:10;;;;;;;10.45;6.50;;;12.00;99.90;;;;;;5049559;28;20895;-60
2022/12/31 01:15:37;;;;;;;8.83;5.93;;;12.00;99.90;;;;;;5050258;28;20521;-61
2022/12/31 01:18:04;;;;;;;7.78;5.57;;;12.00;99.90;;;;;;5049886;28;20267;-61
2022/12/31 01:20:30;;;;;;;8.70;6.18;;;12.00;99.90;;;;;;5050255;28;20041;-61
2022/12/31 01:22:55;;;;;;;7.32;6.28;;;12.00;99.90;;;;;;5049543;28;20049;-61
2022/12/31 01:25:21;;;;;;;5.70;5.10;;;12.00;99.90;;;;;;5049103;28;20425;-60
2022/12/31 01:27:46;;;;;;;8.15;4.05;;;12.00;99.90;;;;;;5029469;28;20068;-61
2022/12/31 01:30:12;;;;;;;6.85;3.97;;;12.00;99.90;;;;;;5030148;28;20041;-60
2022/12/31 01:32:38;;;;;;;5.00;3.22;;;12.00;99.90;;;;;;5043005;28;20039;-61
2022/12/31 01:35:04;;;;;;;2.13;1.63;;;11.90;99.90;;;;;;5047789;28;20041;-61
2022/12/31 01:37:29;;;;;;;3.08;2.05;;;12.00;99.90;;;;;;5049438;28;20637;-60
2022/12/31 01:39:55;;;;;;;3.13;1.83;;;12.00;99.90;;;;;;5049965;28;20119;-59
2022/12/31 01:42:20;;;;;;;4.40;1.67;;;12.00;99.90;;;;;;5049403;28;20081;-61
2022/12/31 01:44:52;;;;;;;2.70;1.00;;;12.00;99.90;;;;;;5048371;28;20065;-61
2022/12/31 01:47:30;;;;;;;1.77;1.15;;;12.00;99.90;;;;;;5048653;28;20545;-61
2022/12/31 01:50:02;;;;;;;1.65;1.17;;;12.00;99.90;;;;;;5049279;28;20041;-61
2022/12/31 01:52:33;;;;;;;4.78;1.50;;;12.00;99.90;;;;;;5045402;28;20033;-61
2022/12/31 01:55:08;;;;;;;1.70;0.82;;;12.00;99.90;;;;;;5047986;28;20040;-61
2022/12/31 01:57:35;;;;;;;1.50;1.00;;;12.00;99.90;;;;;;5049157;28;20448;-61
2022/12/31 02:00:03;;;;;;;2.95;0.82;;;11.90;99.90;;;;;;5049237;28;20566;-60
2022/12/31 02:02:28;;;;;;;1.65;1.00;;;11.90;99.90;;;;;;5049476;28;20033;-60
2022/12/31 02:04:57;;;;;;;0.82;0.70;;;11.90;99.90;;;;;;5048705;28;20029;-61
2022/12/31 02:07:23;;;;;;;1.40;0.50;;;11.90;99.90;;;;;;5048696;28;20090;-60
2022/12/31 02:09:49;;;;;;;1.73;0.70;;;11.80;99.90;;;;;;5048825;28;20033;-62
2022/12/31 02:12:15;;;;;;;1.17;0.70;;;11.80;99.90;;;;;;5049033;28;20072;-61
2022/12/31 02:14:48;;;;;;;3.13;0.53;;;11.80;99.90;;;;;;5048291;28;20083;-60
2022/12/31 02:17:35;;;;;;;1.95;0.20;;;11.80;99.90;;;;;;5048811;28;20842;-61
2022/12/31 02:20:38;;;;;;;2.10;0.30;;;11.80;99.90;;;;;;5039924;28;20060;-59
2022/12/31 02:23:26;;;;;;;1.05;0.30;;;11.80;99.90;;;;;;5028660;28;20046;-61
2022/12/31 02:25:54;;;;;;;1.17;0.65;;;11.80;99.90;;;;;;5029386;28;20045;-61
2022/12/31 02:28:55;;;;;;;2.05;0.30;;;11.80;99.90;;;;;;5028976;28;20081;-60
2022/12/31 02:31:29;;;;;;;2.15;0.40;;;11.80;99.90;;;;;;5047724;28;20410;-60
2022/12/31 02:34:05;;;;;;;0.77;0.30;;;11.80;99.90;;;;;;5048700;28;20112;-61
2022/12/31 02:36:37;;;;;;;1.37;0.40;;;11.70;99.90;;;;;;5048106;28;20048;-61
2022/12/31 02:39:06;;;;;;;2.63;0.65;;;11.70;99.90;;;;;;5047525;28;20265;-60
2022/12/31 02:41:49;;;;;;;1.67;0.47;;;11.70;99.90;;;;;;5082574;28;20049;-61
2022/12/31 02:44:28;;;;;;;2.00;0.57;;;11.70;99.90;;;;;;5052308;28;20087;-61
2022/12/31 02:47:09;;;;;;;2.88;0.90;;;11.70;99.90;;;;;;5049639;28;20690;-61
2022/12/31 02:50:00;;;;;;;1.55;0.60;;;11.70;99.90;;;;;;5033410;28;20506;-61
2022/12/31 02:52:50;;;;;;;1.92;0.70;;;11.60;99.90;;;;;;5033190;28;20046;-61
2022/12/31 02:55:57;;;;;;;2.85;0.68;;;11.60;99.90;;;;;;5063687;28;20041;-61
2022/12/31 03:04:32;;;;;;;1.25;0.40;;;11.60;99.90;;;;;;5031905;28;20062;-60
2022/12/31 03:07:10;;;;;;;1.85;0.80;;;11.60;99.90;;;;;;5032565;28;20053;-61
2022/12/31 03:09:36;;;;;;;1.92;0.90;;;11.60;99.90;;;;;;5032721;28;20037;-60
2022/12/31 03:14:52;;;;;;;;;;;11.60;99.90;;;;;;5032299;28;20045;-60
2022/12/31 03:17:18;;;;;;;2.17;0.60;;;11.60;99.90;;;;;;5032360;28;19952;-59
2022/12/31 03:22:28;;;;;;;2.83;0.75;;;11.50;99.90;;;;;;5030817;28;20506;-60
2022/12/31 03:27:41;;;;;;;2.40;0.88;;;11.50;99.90;;;;;;5032627;28;20438;-61
2022/12/31 03:30:07;;;;;;;6.43;0.80;;;11.50;99.90;;;;;;5036425;28;20560;-61
2022/12/31 03:32:33;;;;;;;3.80;0.63;;;11.40;99.90;;;;;;5051918;28;20037;-61
2022/12/31 03:34:58;;;;;;;4.00;1.33;;;11.40;99.90;;;;;;5050934;28;20041;-60
2022/12/31 03:37:24;;;;;;;1.50;1.03;;;11.40;99.90;;;;;;5051439;28;20302;-61
2022/12/31 03:39:49;;;;;;;2.53;1.33;;;11.40;99.90;;;;;;5052009;28;20191;-60
2022/12/31 03:42:15;;;;;;;3.00;1.80;;;11.40;99.90;;;;;;5051922;28;20115;-60
2022/12/31 03:44:40;;;;;;;3.07;1.87;;;11.40;99.90;;;;;;5050513;28;20080;-61
2022/12/31 03:47:06;;;;;;;5.03;2.43;;;11.40;99.90;;;;;;5052048;28;20041;-61
2022/12/31 03:49:31;;;;;;;2.93;2.60;;;11.50;99.90;;;;;;5052242;28;20041;-61
2022/12/31 03:51:57;;;;;;;4.33;2.73;;;11.40;99.90;;;;;;5051520;28;20037;-60
2022/12/31 03:54:23;;;;;;;4.45;3.15;;;11.50;99.90;;;;;;5050245;28;20037;-59
2022/12/31 03:56:48;;;;;;;4.50;2.77;;;11.50;99.90;;;;;;5051228;28;20128;-61
2022/12/31 03:59:14;;;;;;;4.90;1.97;;;11.50;99.90;;;;;;5051697;28;20271;-61
2022/12/31 04:01:39;;;;;;;5.13;2.97;;;11.50;99.90;;;;;;5050762;28;20549;-61
2022/12/31 04:04:05;;;;;;;5.63;2.30;;;11.50;99.90;;;;;;5031062;28;20051;-61
2022/12/31 04:06:30;;;;;;;6.30;1.97;;;11.40;99.90;;;;;;5031555;28;20162;-61
2022/12/31 04:08:56;;;;;;;4.13;2.10;;;11.40;99.90;;;;;;5031552;28;20077;-60
2022/12/31 04:11:21;;;;;;;2.57;1.60;;;11.40;99.90;;;;;;5031305;28;20284;-60
2022/12/31 04:13:47;;;;;;;3.00;1.70;;;11.50;99.90;;;;;;5030986;28;20034;-61
2022/12/31 04:16:12;;;;;;;2.23;1.73;;;11.40;99.90;;;;;;5030021;28;20044;-61
2022/12/31 04:18:38;;;;;;;2.70;1.80;;;11.50;99.90;;;;;;5030871;28;20064;-61
2022/12/31 04:21:04;;;;;;;3.67;1.67;;;11.40;99.90;;;;;;5031293;28;20041;-61
2022/12/31 04:23:30;;;;;;;;;;;11.40;99.90;;;;;;5030861;28;20045;-60
2022/12/31 04:25:55;;;;;;;2.03;1.48;;;11.40;99.90;;;;;;5031404;28;19924;-61
2022/12/31 04:28:21;;;;;;;2.67;1.97;;;11.40;99.90;;;;;;5031125;28;20040;-60
2022/12/31 04:30:47;;;;;;;3.17;2.08;;;11.40;99.90;;;;;;5030026;28;20089;-60
2022/12/31 04:33:12;;;;;;;3.60;1.43;;;11.40;99.90;;;;;;5030030;28;20056;-61
2022/12/31 04:35:38;;;;;;;3.30;1.45;;;11.40;99.90;;;;;;5062574;28;20061;-61
2022/12/31 04:38:03;;;;;;;5.43;1.40;;;11.40;99.90;;;;;;5049199;28;20318;-61
2022/12/31 04:40:29;;;;;;;1.77;1.17;;;11.40;99.90;;;;;;5046586;28;20296;-60
2022/12/31 04:42:54;;;;;;;2.25;0.90;;;11.30;99.90;;;;;;5033747;28;20445;-61
2022/12/31 04:45:20;;;;;;;4.00;1.03;;;11.30;99.90;;;;;;5049545;28;20130;-61
2022/12/31 04:47:46;;;;;;;1.23;0.57;;;11.30;99.90;;;;;;5080808;28;20060;-61
2022/12/31 04:50:11;;;;;;;1.40;0.30;;;11.30;99.90;;;;;;5049746;28;20029;-61
2022/12/31 04:52:37;;;;;;;1.00;0.50;;;11.20;99.90;;;;;;5049790;28;20039;-61
2022/12/31 04:55:02;;;;;;;3.23;0.50;;;11.30;99.90;;;;;;5049902;28;20072;-60
2022/12/31 04:57:28;;;;;;;3.13;0.93;;;11.30;99.90;;;;;;5050508;28;20147;-60
2022/12/31 04:59:53;;;;;;;1.85;0.68;;;11.20;99.90;;;;;;5050545;28;20044;-61
2022/12/31 05:02:19;;;;;;;2.93;1.43;;;11.20;99.90;;;;;;5050467;28;20095;-60
2022/12/31 05:04:45;;;;;;;2.80;1.50;;;11.20;99.90;;;;;;5081712;28;20055;-61
2022/12/31 05:07:10;;;;;;;2.57;1.93;;;11.20;99.90;;;;;;5050427;28;20037;-61
2022/12/31 05:09:36;;;;;;;3.30;2.90;;;11.30;99.90;;;;;;5050737;28;20268;-60
2022/12/31 05:12:01;;;;;;;6.63;3.83;;;11.30;99.90;;;;;;5034181;28;20237;-60
2022/12/31 05:14:27;;;;;;;5.20;4.32;;;11.30;99.90;;;;;;5029218;28;20033;-61
2022/12/31 05:16:53;;;;;;;5.60;4.37;;;11.30;99.90;;;;;;5029602;28;20048;-60
2022/12/31 05:19:18;;;;;;;8.00;4.80;;;11.30;99.90;;;;;;5030969;28;20311;-61
2022/12/31 05:22:27;;;;;;;5.93;4.53;;;11.30;99.90;;;;;;5030853;28;20406;-61
2022/12/31 05:24:30;;;;;;;7.93;6.38;;;11.30;99.90;;;;;;5029222;28;20045;-61
2022/12/31 05:26:55;;;;;;;6.43;5.45;;;11.30;99.90;;;;;;5030067;28;20049;-61
2022/12/31 05:29:21;;;;;;;5.83;5.23;;;11.30;99.90;;;;;;5030029;28;20040;-61
2022/12/31 05:31:46;;;;;;;5.63;4.70;;;11.30;99.90;;;;;;5030549;28;20424;-59
2022/12/31 05:34:12;;;;;;;7.00;4.10;;;11.30;99.90;;;;;;5029296;28;20034;-61
2022/12/31 05:36:37;;;;;;;4.50;3.87;;;11.30;99.90;;;;;;5029825;28;20069;-60
2022/12/31 05:39:03;;;;;;;4.00;3.20;;;11.30;99.90;;;;;;5029686;28;20053;-61
2022/12/31 05:41:28;;;;;;;3.37;3.17;;;11.30;99.90;;;;;;5030171;28;20033;-61
2022/12/31 05:43:54;;;;;;;7.00;4.70;;;11.30;99.90;;;;;;5028783;28;20331;-61
2022/12/31 05:46:19;;;;;;;4.40;3.83;;;11.30;99.90;;;;;;5029842;28;20042;-61
2022/12/31 05:48:45;;;;;;;4.57;3.73;;;11.30;99.90;;;;;;5047758;28;20037;-60
2022/12/31 05:51:10;;;;;;;5.33;3.27;;;11.30;99.90;;;;;;5049514;28;20041;-61
2022/12/31 05:53:36;;;;;;;6.10;3.47;;;11.30;99.90;;;;;;5047573;28;20287;-61
2022/12/31 05:56:01;;;;;;;3.93;2.93;;;11.30;99.90;;;;;;5048249;28;20041;-61
2022/12/31 05:58:27;;;;;;;3.25;2.72;;;11.30;99.90;;;;;;5048924;28;20033;-60
2022/12/31 06:00:53;;;;;;;2.97;2.67;;;11.30;99.90;;;;;;5049819;28;20143;-61
2022/12/31 06:03:19;;;;;;;3.88;3.03;;;11.30;99.90;;;;;;5043472;28;20051;-61
2022/12/31 06:05:44;;;;;;;3.93;2.40;;;11.30;99.90;;;;;;5029655;28;20117;-61
2022/12/31 06:08:11;;;;;;;3.00;2.50;;;11.30;99.90;;;;;;5029404;28;20268;-61
2022/12/31 06:10:37;;;;;;;;;;;11.30;99.90;;;;;;5030018;28;20795;-61
2022/12/31 06:13:02;;;;;;;3.80;1.98;;;11.30;99.90;;;;;;5028610;28;20005;-62
2022/12/31 06:15:28;;;;;;;3.00;2.00;;;11.30;99.90;;;;;;5034216;28;20152;-61
2022/12/31 06:17:53;;;;;;;3.17;2.17;;;11.30;99.90;;;;;;5053285;28;20123;-61
2022/12/31 06:20:19;;;;;;;4.20;1.93;;;11.30;99.90;;;;;;5053933;28;20051;-60
2022/12/31 06:22:45;;;;;;;2.13;1.57;;;11.20;99.90;;;;;;5053542;28;20037;-60
2022/12/31 06:25:11;;;;;;;4.68;1.92;;;11.30;99.90;;;;;;5052601;28;20409;-61
2022/12/31 06:27:37;;;;;;;1.80;1.42;;;11.20;99.90;;;;;;5052645;28;20037;-61
2022/12/31 06:30:03;;;;;;;2.97;2.08;;;11.20;99.90;;;;;;5053035;28;20116;-60
2022/12/31 06:32:28;;;;;;;1.83;1.73;;;11.20;99.90;;;;;;5053551;28;20497;-61
2022/12/31 06:34:54;;;;;;;2.07;1.80;;;11.20;99.90;;;;;;5052494;28;20051;-59
2022/12/31 06:37:19;;;;;;;3.00;2.00;;;11.20;99.90;;;;;;5053111;28;20037;-61
2022/12/31 06:39:45;;;;;;;3.63;1.93;;;11.20;99.90;;;;;;5053236;28;20275;-61
2022/12/31 06:42:10;;;;;;;1.80;1.70;;;11.20;99.90;;;;;;5051777;28;20076;-61
2022/12/31 06:44:36;;;;;;;2.43;2.23;;;11.20;99.90;;;;;;5051973;28;20279;-61
2022/12/31 06:47:02;;;;;;;5.20;2.23;;;11.20;99.90;;;;;;5053114;28;20505;-61
2022/12/31 06:49:27;;;;;;;1.83;1.70;;;11.20;99.90;;;;;;5053147;28;20190;-61
2022/12/31 06:51:53;;;;;;;2.23;2.03;;;11.20;99.90;;;;;;5052793;28;20278;-60
2022/12/31 06:54:18;;;;;;;2.50;2.40;;;11.10;99.90;;;;;;5034464;28;20091;-60
2022/12/31 06:56:44;;;;;;;3.20;2.60;;;11.20;99.90;;;;;;5053152;28;20041;-60
2022/12/31 06:59:29;;;;;;;2.67;2.47;;;11.20;99.90;;;;;;5052398;28;20029;-61
2022/12/31 07:01:54;;;;;;;4.28;2.20;;;11.20;99.90;;;;;;5051152;28;20033;-61
2022/12/31 07:04:29;;;;;;;3.13;2.40;;;11.20;99.90;;;;;;5051565;28;20033;-61
2022/12/31 07:07:25;;;;;;;3.63;2.63;;;11.10;99.90;;;;;;5052332;28;20335;-61
2022/12/31 07:10:12;;;;;;;3.20;2.90;;;11.20;99.90;;;;;;5043355;28;20045;-60
2022/12/31 07:13:12;;;;;;;3.78;3.47;;;11.20;99.90;;;;;;5064689;28;20073;-61
2022/12/31 07:15:56;;;;;;;3.13;2.90;;;11.20;99.90;;;;;;5032105;28;20132;-61
2022/12/31 07:18:50;;;;;;;4.85;3.10;;;11.20;99.90;;;;;;5032581;28;20120;-61
2022/12/31 07:21:20;;;;;;;4.22;2.88;;;11.20;99.90;;;;;;5034100;28;20494;-60
2022/12/31 07:23:46;;;;;;;3.65;3.35;;;11.30;99.90;;;;;;5047844;28;20041;-61
2022/12/31 07:26:25;;;;;;;3.90;3.60;;;11.30;99.90;;;;;;5047712;28;20048;-61
2022/12/31 07:29:07;;;;;;;4.68;4.25;;;11.30;99.90;;;;;;5032296;28;20046;-61
2022/12/31 07:32:05;;;;;;;5.15;3.55;;;11.30;99.90;;;;;;5044645;28;20047;-60
2022/12/31 07:34:48;;;;;;;3.97;3.10;;;11.30;99.90;;;;;;5050672;28;20049;-60
2022/12/31 07:37:33;;;;;;;5.22;4.10;;;11.30;99.90;;;;;;5051782;28;20140;-60
2022/12/31 07:40:21;;;;;;;4.00;3.67;;;11.30;99.90;;;;;;5052344;28;20082;-61
2022/12/31 07:43:16;;;;;;;4.00;3.60;;;11.30;99.90;;;;;;5046570;28;20049;-61
2022/12/31 07:46:08;;;;;;;3.95;3.55;;;11.40;99.90;;;;;;5040118;28;20128;-61
2022/12/31 07:48:34;;;;;;;2.58;2.38;;;11.40;99.90;;;;;;5041699;28;20049;-60
2022/12/31 07:51:00;;;;;;;3.38;3.08;;;11.40;99.90;;;;;;5051296;28;20044;-61
2022/12/31 07:53:26;;;;;;;3.80;2.90;;;11.40;99.90;;;;;;5051050;28;20055;-61
2022/12/31 07:55:58;;;;;;;3.60;2.78;;;11.50;99.90;;;;;;5040230;28;20069;-61
2022/12/31 07:58:39;;;;;;;3.05;2.75;;;11.50;99.90;;;;;;5038355;28;20044;-61
2022/12/31 08:01:09;;;;;;;3.15;2.60;;;11.50;99.90;;;;;;5051708;28;20044;-61
2022/12/31 08:03:50;;;;;;;3.25;2.95;;;11.50;99.90;;;;;;5050277;28;20372;-61
2022/12/31 08:06:41;;;;;;;3.05;2.20;;;11.60;99.90;;;;;;5051708;28;20510;-61
2022/12/31 08:09:16;;;;;;;3.85;2.80;;;11.60;99.90;;;;;;5031749;28;20037;-61
2022/12/31 08:11:55;;;;;;;3.03;2.38;;;11.60;99.90;;;;;;5031755;28;20085;-61
2022/12/31 08:14:20;;;;;;;3.88;2.13;;;11.70;99.90;;;;;;5030817;28;20041;-61
2022/12/31 08:16:47;;;;;;;2.45;2.20;;;11.70;99.90;;;;;;5031456;28;20551;-60
2022/12/31 08:19:30;;;;;;;2.30;2.20;;;11.70;99.90;;;;;;5031439;28;20048;-61
2022/12/31 08:22:13;;;;;;;2.70;2.47;;;11.80;99.90;;;;;;5042473;28;20421;-61
2022/12/31 08:24:48;;;;;;;2.40;2.20;;;11.80;99.90;;;;;;5049726;28;20041;-61
2022/12/31 08:27:47;;;;;;;3.70;2.55;;;11.90;99.90;;;;;;5050984;28;20055;-61
2022/12/31 08:30:16;;;;;;;2.22;2.13;;;12.00;99.90;;;;;;5051215;28;20429;-61
2022/12/31 08:33:01;;;;;;;2.53;2.33;;;12.00;99.90;;;;;;5049422;28;20041;-61
2022/12/31 08:35:55;;;;;;;4.15;2.72;;;12.10;99.90;;;;;;5050381;28;20033;-61
2022/12/31 08:38:36;;;;;;;4.15;2.55;;;12.10;99.90;;;;;;5049658;28;20103;-61
2022/12/31 08:41:41;;;;;;;3.83;2.08;;;12.20;99.90;;;;;;5050637;28;20087;-61
2022/12/31 08:44:31;;;;;;;2.50;1.50;;;12.20;99.90;;;;;;5047507;28;20068;-61
2022/12/31 08:47:18;;;;;;;4.18;3.17;;;12.30;99.90;;;;;;5050383;28;20119;-61
2022/12/31 08:49:43;;;;;;;2.20;1.63;;;12.40;99.90;;;;;;5049665;28;20045;-62
2022/12/31 08:52:18;;;;;;;3.47;1.83;;;12.40;99.90;;;;;;5045311;28;20658;-62
2022/12/31 08:54:44;;;;;;;2.80;1.80;;;12.40;99.90;;;;;;5056418;28;20099;-61
2022/12/31 08:57:27;;;;;;;3.38;1.65;;;12.50;99.90;;;;;;5060328;28;20075;-62
2022/12/31 09:00:11;;;;;;;2.08;1.83;;;12.50;99.90;;;;;;5055113;28;20044;-61
2022/12/31 09:03:03;;;;;;;1.40;1.27;;;12.50;99.90;;;;;;5055729;28;20055;-61
2022/12/31 09:05:46;;;;;;;2.35;0.90;;;12.60;99.90;;;;;;5058336;28;20130;-61
2022/12/31 09:08:27;;;;;;;1.38;1.05;;;12.60;99.90;;;;;;5054095;28;20128;-62
2022/12/31 09:11:02;;;;;;;1.27;0.82;;;12.70;99.90;;;;;;5034150;28;20037;-61
2022/12/31 09:13:36;;;;;;;1.50;0.65;;;12.80;99.90;;;;;;5053638;28;20498;-61
2022/12/31 09:16:18;;;;;;;0.68;0.52;;;12.80;99.90;;;;;;5060589;28;20040;-61
2022/12/31 09:18:44;;;;;;;1.42;0.40;;;12.80;99.90;;;;;;5057601;28;20549;-61
2022/12/31 09:21:12;;;;;;;1.52;1.00;;;12.90;99.90;;;;;;5058095;28;20123;-61
2022/12/31 09:23:38;;;;;;;0.82;0.40;;;12.90;99.90;;;;;;5056477;28;20083;-60
2022/12/31 09:26:22;;;;;;;0.32;0.20;;;12.90;99.90;;;;;;5058859;28;20082;-61
2022/12/31 09:28:54;;;;;;;1.20;0.40;;;12.90;99.90;;;;;;5051759;28;20037;-57
2022/12/31 09:31:38;;;;;;;0.30;0.20;;;13.00;99.90;;;;;;5056478;28;20101;-61
2022/12/31 09:34:40;;;;;;;0.65;0.20;;;13.00;99.90;;;;;;5054011;28;20044;-61
2022/12/31 09:37:21;;;;;;;0.40;0.20;;;13.00;99.90;;;;;;5051861;28;20044;-61
2022/12/31 09:39:47;;;;;;;2.88;0.30;;;13.00;99.90;;;;;;5053103;28;20120;-61
2022/12/31 09:42:25;;;;;;;0.90;0.10;;;13.00;99.90;;;;;;5056077;28;20049;-60
2022/12/31 09:45:29;;;;;;;2.58;0.20;;;13.00;99.90;;;;;;5051191;28;20052;-60
2022/12/31 09:48:17;;;;;;;2.40;0.40;;;13.00;99.90;;;;;;5053610;28;20607;-61
2022/12/31 09:50:56;;;;;;;1.02;0.20;;;13.00;99.90;;;;;;5057652;28;20118;-61
2022/12/31 09:53:31;;;;;;;1.25;0.10;;;13.00;99.90;;;;;;5048991;28;20805;-60
2022/12/31 09:56:14;;;;;;;0.17;0.10;;;13.00;99.90;;;;;;5046765;28;20119;-61
2022/12/31 09:59:05;;;;;;;0.60;0.10;;;13.10;99.90;;;;;;5049227;28;20056;-60
2022/12/31 10:01:55;;;;;;;0.35;0.13;;;13.10;99.90;;;;;;5049222;28;20583;-60
2022/12/31 10:04:30;;;;;;;0.55;0.20;;;13.10;99.90;;;;;;5047982;28;20045;-62
2022/12/31 10:07:14;;;;;;;0.63;0.20;;;13.10;99.90;;;;;;5049304;28;20172;-61
2022/12/31 10:10:06;;;;;;;0.68;0.20;;;13.20;99.90;;;;;;5049640;28;20073;-61
2022/12/31 10:12:46;;;;;;;0.35;0.10;;;13.20;99.90;;;;;;5049039;28;20029;-61
2022/12/31 10:15:33;;;;;;;0.55;0.10;;;13.20;99.90;;;;;;5048472;28;20048;-62
2022/12/31 10:18:19;;;;;;;1.77;0.40;;;13.20;99.90;;;;;;5049089;28;20041;-61
2022/12/31 10:21:10;;;;;;;0.50;0.13;;;13.30;99.90;;;;;;5048989;28;20535;-60
2022/12/31 10:23:36;;;;;;;0.45;0.20;;;13.30;99.90;;;;;;5048019;28;20494;-60
2022/12/31 10:26:22;;;;;;;0.27;0.17;;;13.30;99.90;;;;;;5049193;28;20041;-61
2022/12/31 10:28:55;;;;;;;0.40;0.22;;;13.30;99.90;;;;;;5048283;28;20294;-60
2022/12/31 10:31:48;;;;;;;1.15;0.43;;;13.30;99.90;;;;;;5049455;28;20033;-61
2022/12/31 10:34:16;;;;;;;1.60;0.90;;;13.30;99.90;;;;;;5034681;28;20047;-61
2022/12/31 10:37:14;;;;;;;2.30;0.95;;;13.40;99.90;;;;;;5048878;28;20095;-60
2022/12/31 10:39:52;;;;;;;1.50;0.90;;;13.40;99.90;;;;;;5045511;28;20045;-60
2022/12/31 10:42:45;;;;;;;2.05;1.00;;;13.40;99.90;;;;;;5047688;28;20547;-60
2022/12/31 10:45:37;;;;;;;2.85;0.70;;;13.40;99.90;;;;;;5046837;28;20102;-60
2022/12/31 10:48:28;;;;;;;1.85;0.90;;;13.50;99.90;;;;;;5036609;28;20028;-62
2022/12/31 10:51:17;;;;;;;2.55;0.63;;;13.50;99.90;;;;;;5048890;28;20033;-60
2022/12/31 10:54:28;;;;;;;10.05;1.67;;;13.60;99.90;;;;;;5047271;28;20429;-60
2022/12/31 10:57:15;;;;;;;1.13;0.40;;;13.70;99.90;;;;;;5047906;28;20040;-59
2022/12/31 10:59:59;;;;;;;7.13;0.88;;;13.70;99.90;;;;;;5035638;28;20044;-61
2022/12/31 11:02:45;;;;;;;1.55;0.57;;;13.60;99.90;;;;;;5042340;28;20595;-61
2022/12/31 11:05:37;;;;;;;2.60;0.75;;;13.60;99.90;;;;;;5039688;28;20048;-61
2022/12/31 11:08:32;;;;;;;0.73;0.20;;;13.60;99.90;;;;;;5052300;28;20036;-60
2022/12/31 11:11:38;;;;;;;1.60;0.35;;;13.60;99.90;;;;;;5051474;28;20390;-61
2022/12/31 11:14:23;;;;;;;2.28;0.45;;;13.60;99.90;;;;;;5045714;28;20128;-61
2022/12/31 11:17:10;;;;;;;1.17;0.40;;;13.60;99.90;;;;;;5051531;28;20106;-61
2022/12/31 11:19:38;;;;;;;0.80;0.40;;;13.60;99.90;;;;;;5051644;28;20048;-60
2022/12/31 11:22:21;;;;;;;2.20;0.50;;;13.60;99.90;;;;;;5052350;28;20041;-61
2022/12/31 11:25:12;;;;;;;1.30;0.32;;;13.60;99.90;;;;;;5050676;28;20113;-60
2022/12/31 11:28:11;;;;;;;3.22;1.13;;;13.60;99.90;;;;;;5051572;28;20045;-61
2022/12/31 11:30:55;;;;;;;3.00;1.00;;;13.60;99.90;;;;;;5050207;28;20076;-60
2022/12/31 11:33:47;;;;;;;7.03;2.33;;;13.70;99.90;;;;;;5051234;28;20384;-61
2022/12/31 11:36:44;;;;;;;3.97;1.92;;;13.70;99.90;;;;;;5050706;28;20041;-61
2022/12/31 11:39:34;;;;;;;5.05;1.65;;;13.70;99.90;;;;;;5039897;28;20470;-62
2022/12/31 11:42:34;;;;;;;3.97;1.85;;;13.70;99.90;;;;;;5050930;28;20036;-61
2022/12/31 11:45:18;;;;;;;5.53;3.15;;;13.70;99.90;;;;;;5049732;28;20452;-60
2022/12/31 11:48:14;;;;;;;2.65;1.75;;;13.70;99.90;;;;;;5051338;28;20286;-60
2022/12/31 11:50:47;;;;;;;4.57;3.33;;;13.70;99.90;;;;;;5044241;28;20206;-61
2022/12/31 11:53:24;;;;;;;2.65;2.45;;;13.70;99.90;;;;;;5045825;28;20082;-61
2022/12/31 11:56:18;;;;;;;3.88;1.92;;;13.70;99.90;;;;;;5046734;28;20485;-61
2022/12/31 11:58:55;;;;;;;6.18;3.63;;;13.80;99.90;;;;;;5045637;28;20052;-62
2022/12/31 12:01:35;;;;;;;7.88;3.75;;;13.80;99.90;;;;;;5044746;28;20131;-63
2022/12/31 12:04:01;;;;;;;3.47;2.97;;;13.80;99.90;;;;;;5044286;28;20129;-61
2022/12/31 12:06:32;;;;;;;7.20;3.38;;;13.90;99.90;;;;;;5038228;28;20060;-62
2022/12/31 12:09:04;;;;;;;5.07;3.03;;;13.90;99.90;;;;;;5043469;28;20516;-62
2022/12/31 12:11:34;;;;;;;6.57;3.90;;;13.90;99.90;;;;;;5042369;28;20056;-61
2022/12/31 12:13:59;;;;;;;7.55;3.95;;;14.00;99.90;;;;;;5040667;28;20119;-61
2022/12/31 12:16:26;;;;;;;3.50;3.22;;;14.00;99.90;;;;;;5044148;28;20443;-62
2022/12/31 12:19:05;;;;;;;4.10;3.47;;;14.10;99.90;;;;;;5045143;28;20119;-61
2022/12/31 12:21:32;;;;;;;7.10;3.25;;;14.10;99.90;;;;;;5040630;28;20037;-62
2022/12/31 12:24:00;;;;;;;3.92;1.33;;;14.10;99.90;;;;;;5043307;28;20087;-61
2022/12/31 12:26:28;;;;;;;3.92;1.00;;;14.10;99.90;;;;;;5044135;28;20033;-61
2022/12/31 12:28:54;;;;;;;4.45;1.80;;;14.10;99.90;;;;;;5043239;28;20416;-62
2022/12/31 12:31:22;;;;;;;2.65;1.65;;;14.10;99.90;;;;;;5038642;28;20391;-62
2022/12/31 12:33:49;;;;;;;4.75;2.33;;;14.10;99.90;;;;;;5042475;28;20406;-61
2022/12/31 12:36:17;;;;;;;4.90;2.40;;;14.00;99.90;;;;;;5040241;28;20337;-60
2022/12/31 12:38:43;;;;;;;3.90;1.65;;;14.00;99.90;;;;;;5036109;28;20416;-63
2022/12/31 12:41:24;;;;;;;5.20;2.08;;;14.00;99.90;;;;;;5034159;28;20040;-62
2022/12/31 12:44:01;;;;;;;8.38;2.70;;;14.00;99.90;;;;;;5036525;28;20037;-62
2022/12/31 12:46:34;;;;;;;3.45;2.08;;;14.00;99.90;;;;;;5017038;28;20040;-61
2022/12/31 12:49:02;;;;;;;5.03;2.67;;;13.90;99.90;;;;;;5034394;28;20485;-63
2022/12/31 12:51:48;;;;;;;4.70;2.33;;;13.90;99.90;;;;;;5029600;28;20044;-61
2022/12/31 12:54:59;;;;;;;2.00;1.77;;;13.90;99.90;;;;;;5028856;28;20037;-61
2022/12/31 12:57:46;;;;;;;3.55;2.33;;;13.90;99.90;;;;;;5030988;28;20521;-61
2022/12/31 13:00:17;;;;;;;2.90;2.35;;;13.90;99.90;;;;;;5043707;28;20047;-62
2022/12/31 13:02:57;;;;;;;1.75;1.17;;;13.90;99.90;;;;;;5043654;28;20044;-61
2022/12/31 13:05:23;;;;;;;3.58;1.20;;;13.90;99.90;;;;;;5041135;28;20037;-61
2022/12/31 13:08:23;;;;;;;1.50;1.30;;;13.90;99.90;;;;;;5036025;28;20072;-60
2022/12/31 13:11:05;;;;;;;1.85;1.73;;;13.90;99.90;;;;;;5035542;28;20041;-61
2022/12/31 13:14:09;;;;;;;3.85;2.63;;;13.90;99.90;;;;;;5034857;28;20057;-63
2022/12/31 13:17:09;;;;;;;4.70;1.80;;;13.90;99.90;;;;;;5033219;28;20048;-62
2022/12/31 13:19:45;;;;;;;4.15;2.22;;;14.00;99.90;;;;;;5032597;28;20033;-62
2022/12/31 13:22:37;;;;;;;7.20;3.40;;;14.00;99.90;;;;;;5034085;28;20044;-61
2022/12/31 13:25:17;;;;;;;4.32;3.03;;;14.00;99.90;;;;;;5027406;28;20053;-61
2022/12/31 13:27:49;;;;;;;6.00;2.55;;;14.10;99.90;;;;;;5030333;28;20038;-62
2022/12/31 13:30:29;;;;;;;6.28;3.00;;;14.20;99.90;;;;;;5029806;28;20112;-63
2022/12/31 13:33:08;;;;;;;11.27;3.90;;;14.10;99.90;;;;;;5029370;28;20048;-61
2022/12/31 13:35:44;;;;;;;8.52;3.05;;;14.10;99.90;;;;;;5042130;28;20063;-62
2022/12/31 13:38:35;;;;;;;6.65;3.28;;;14.20;99.90;;;;;;5039499;28;20444;-63
2022/12/31 13:41:22;;;;;;;4.35;2.75;;;14.20;99.90;;;;;;5038878;28;20045;-61
2022/12/31 13:44:27;;;;;;;6.65;2.53;;;14.30;99.90;;;;;;5036805;28;20049;-61